createdAt,value
2023-05-01T00:00:29.506Z,0.00
2023-05-01T00:01:29.504Z,0.00
2023-05-01T00:02:29.554Z,0.00
2023-05-01T00:03:29.603Z,0.00
2023-05-01T00:04:29.474Z,0.00
2023-05-01T00:05:29.446Z,0.00
2023-05-01T00:06:29.482Z,0.00
2023-05-01T00:07:29.465Z,0.00
2023-05-01T00:08:29.413Z,0.00
2023-05-01T00:09:29.389Z,0.00
2023-05-01T00:10:29.363Z,0.00
2023-05-01T00:11:29.385Z,0.00
2023-05-01T00:12:29.363Z,0.00
2023-05-01T00:13:29.343Z,0.00
2023-05-01T00:14:29.315Z,0.00
2023-05-01T00:15:29.334Z,0.00
2023-05-01T00:16:29.343Z,0.00
2023-05-01T00:17:29.328Z,0.00
2023-05-01T00:18:29.282Z,0.00
2023-05-01T00:19:29.261Z,0.00
2023-05-01T00:20:29.252Z,0.00
2023-05-01T00:21:29.238Z,0.00
2023-05-01T00:22:29.232Z,0.00
2023-05-01T00:23:29.195Z,0.00
2023-05-01T00:24:29.183Z,0.00
2023-05-01T00:25:29.211Z,0.00
2023-05-01T00:26:29.289Z,0.00
2023-05-01T00:27:29.160Z,0.00
2023-05-01T00:28:29.154Z,0.00
2023-05-01T00:29:29.139Z,0.00
2023-05-01T00:30:29.140Z,0.00
2023-05-01T00:31:29.160Z,0.00
2023-05-01T00:32:29.212Z,0.00
2023-05-01T00:33:29.085Z,0.00
2023-05-01T00:34:29.056Z,0.00
2023-05-01T00:35:29.060Z,0.00
2023-05-01T00:36:29.048Z,0.00
2023-05-01T00:37:29.029Z,0.00
2023-05-01T00:38:29.010Z,0.00
2023-05-01T00:39:29.024Z,0.00
2023-05-01T00:40:29.026Z,0.00
2023-05-01T00:41:28.977Z,0.00
2023-05-01T00:42:28.959Z,0.00
2023-05-01T00:43:28.966Z,0.00
2023-05-01T00:44:28.925Z,0.00
2023-05-01T00:45:29.036Z,0.00
2023-05-01T00:46:29.062Z,0.00
2023-05-01T00:47:28.914Z,0.00
2023-05-01T00:48:28.881Z,0.00
2023-05-01T00:49:28.888Z,0.00
2023-05-01T00:50:28.863Z,0.00
2023-05-01T00:51:28.846Z,0.00
2023-05-01T00:52:28.833Z,0.00
2023-05-01T00:53:28.828Z,0.00
2023-05-01T00:54:28.815Z,0.00
2023-05-01T00:55:28.813Z,0.00
2023-05-01T00:56:28.798Z,0.00
2023-05-01T00:57:28.779Z,0.00
2023-05-01T00:58:28.762Z,0.00
2023-05-01T00:59:28.749Z,0.00
2023-05-01T01:00:28.760Z,0.00
2023-05-01T01:01:28.970Z,0.00
2023-05-01T01:02:28.738Z,0.00
2023-05-01T01:03:28.709Z,0.00
2023-05-01T01:04:28.746Z,0.00
2023-05-01T01:05:28.701Z,0.00
2023-05-01T01:06:28.716Z,0.00
2023-05-01T01:07:28.642Z,0.00
2023-05-01T01:08:30.590Z,0.00
2023-05-01T01:09:28.624Z,0.00
2023-05-01T01:10:28.613Z,0.00
2023-05-01T01:11:28.588Z,0.00
2023-05-01T01:12:28.594Z,0.00
2023-05-01T01:13:28.619Z,0.00
2023-05-01T01:14:28.552Z,0.00
2023-05-01T01:15:28.541Z,0.00
2023-05-01T01:16:28.540Z,0.00
2023-05-01T01:17:28.576Z,0.00
2023-05-01T01:18:28.494Z,0.00
2023-05-01T01:19:28.488Z,0.00
2023-05-01T01:20:28.488Z,0.00
2023-05-01T01:21:28.494Z,0.00
2023-05-01T01:22:28.489Z,0.00
2023-05-01T01:23:28.450Z,0.00
2023-05-01T01:24:28.433Z,0.00
2023-05-01T01:25:28.439Z,0.00
2023-05-01T01:26:28.411Z,0.00
2023-05-01T01:27:28.424Z,0.00
2023-05-01T01:28:28.362Z,0.00
2023-05-01T01:29:28.366Z,0.00
2023-05-01T01:30:28.385Z,0.00
2023-05-01T01:31:28.363Z,0.00
2023-05-01T01:32:28.360Z,0.00
2023-05-01T01:33:28.314Z,0.00
2023-05-01T01:34:28.311Z,0.00
2023-05-01T01:35:28.309Z,0.00
2023-05-01T01:36:28.293Z,0.00
2023-05-01T01:37:28.252Z,0.00
2023-05-01T01:38:28.269Z,0.00
2023-05-01T01:39:28.233Z,0.00
2023-05-01T01:40:28.247Z,0.00
2023-05-01T01:41:28.197Z,0.00
2023-05-01T01:42:28.200Z,0.00
2023-05-01T01:43:28.202Z,0.00
2023-05-01T01:44:28.179Z,0.00
2023-05-01T01:45:28.166Z,0.00
2023-05-01T01:46:28.191Z,0.00
2023-05-01T01:47:28.289Z,0.00
2023-05-01T01:48:28.149Z,0.00
2023-05-01T01:49:28.101Z,0.00
2023-05-01T01:50:28.110Z,0.00
2023-05-01T01:51:28.091Z,0.00
2023-05-01T01:52:28.066Z,0.00
2023-05-01T01:53:28.067Z,0.00
2023-05-01T01:54:28.053Z,0.00
2023-05-01T01:55:28.046Z,0.00
2023-05-01T01:56:28.016Z,0.00
2023-05-01T01:57:27.997Z,0.00
2023-05-01T01:58:27.997Z,0.00
2023-05-01T01:59:27.990Z,0.00
2023-05-01T02:00:27.985Z,0.00
2023-05-01T02:01:27.999Z,0.00
2023-05-01T02:02:28.150Z,0.00
2023-05-01T02:03:28.040Z,0.00
2023-05-01T02:04:27.918Z,0.00
2023-05-01T02:05:27.910Z,0.00
2023-05-01T02:06:27.930Z,0.00
2023-05-01T02:07:27.886Z,0.00
2023-05-01T02:08:27.882Z,0.00
2023-05-01T02:09:27.842Z,0.00
2023-05-01T02:10:27.853Z,0.00
2023-05-01T02:11:27.819Z,0.00
2023-05-01T02:12:27.810Z,0.00
2023-05-01T02:13:27.808Z,0.00
2023-05-01T02:14:27.795Z,0.00
2023-05-01T02:15:27.781Z,0.00
2023-05-01T02:16:27.824Z,0.00
2023-05-01T02:17:27.767Z,0.00
2023-05-01T02:18:27.752Z,0.00
2023-05-01T02:19:27.730Z,0.00
2023-05-01T02:20:27.724Z,0.00
2023-05-01T02:21:27.697Z,0.00
2023-05-01T02:22:27.684Z,0.00
2023-05-01T02:23:27.688Z,0.00
2023-05-01T02:24:27.663Z,0.00
2023-05-01T02:25:29.560Z,0.00
2023-05-01T02:26:27.652Z,0.00
2023-05-01T02:27:27.638Z,0.00
2023-05-01T02:28:27.606Z,0.00
2023-05-01T02:29:27.604Z,0.00
2023-05-01T02:30:27.612Z,0.00
2023-05-01T02:31:27.610Z,0.00
2023-05-01T02:32:27.591Z,0.00
2023-05-01T02:33:27.545Z,0.00
2023-05-01T02:34:27.539Z,0.00
2023-05-01T02:35:27.522Z,0.00
2023-05-01T02:36:27.519Z,0.00
2023-05-01T02:37:27.522Z,0.00
2023-05-01T02:38:27.484Z,0.00
2023-05-01T02:39:27.472Z,0.00
2023-05-01T02:40:27.477Z,0.00
2023-05-01T02:41:27.438Z,0.00
2023-05-01T02:42:27.446Z,0.00
2023-05-01T02:43:27.441Z,0.00
2023-05-01T02:44:27.410Z,0.00
2023-05-01T02:45:27.430Z,0.00
2023-05-01T02:46:27.517Z,0.00
2023-05-01T02:47:27.537Z,0.00
2023-05-01T02:48:27.371Z,0.00
2023-05-01T02:49:27.338Z,0.00
2023-05-01T02:50:27.410Z,0.00
2023-05-01T02:51:27.326Z,0.00
2023-05-01T02:52:27.322Z,0.00
2023-05-01T02:53:27.315Z,0.00
2023-05-01T02:54:27.273Z,0.00
2023-05-01T02:55:27.291Z,0.00
2023-05-01T02:56:27.269Z,0.00
2023-05-01T02:57:27.237Z,0.00
2023-05-01T02:58:27.255Z,0.00
2023-05-01T02:59:27.206Z,0.00
2023-05-01T03:00:27.241Z,0.00
2023-05-01T03:01:27.206Z,0.00
2023-05-01T03:02:27.189Z,0.00
2023-05-01T03:03:27.155Z,0.00
2023-05-01T03:04:27.207Z,0.00
2023-05-01T03:05:27.144Z,0.00
2023-05-01T03:06:27.154Z,4.00
2023-05-01T03:07:27.114Z,0.00
2023-05-01T03:08:27.125Z,0.00
2023-05-01T03:09:27.088Z,0.00
2023-05-01T03:10:27.088Z,4.00
2023-05-01T03:11:27.061Z,0.00
2023-05-01T03:12:27.070Z,0.00
2023-05-01T03:13:27.043Z,0.00
2023-05-01T03:14:27.023Z,4.00
2023-05-01T03:15:27.032Z,4.00
2023-05-01T03:16:27.099Z,4.00
2023-05-01T03:17:27.027Z,4.00
2023-05-01T03:18:26.974Z,4.00
2023-05-01T03:19:26.953Z,4.00
2023-05-01T03:20:27.603Z,8.00
2023-05-01T03:21:26.946Z,4.00
2023-05-01T03:22:26.928Z,8.00
2023-05-01T03:23:26.906Z,8.00
2023-05-01T03:24:26.895Z,8.00
2023-05-01T03:25:26.882Z,12.00
2023-05-01T03:26:26.862Z,16.00
2023-05-01T03:27:26.863Z,16.00
2023-05-01T03:28:26.850Z,20.00
2023-05-01T03:29:26.817Z,24.00
2023-05-01T03:30:26.915Z,28.00
2023-05-01T03:31:26.870Z,32.00
2023-05-01T03:32:26.899Z,36.00
2023-05-01T03:33:26.790Z,44.00
2023-05-01T03:34:26.769Z,48.00
2023-05-01T03:35:26.844Z,56.00
2023-05-01T03:36:26.722Z,64.00
2023-05-01T03:37:26.720Z,72.00
2023-05-01T03:38:26.724Z,80.00
2023-05-01T03:39:26.694Z,84.00
2023-05-01T03:40:26.690Z,92.00
2023-05-01T03:41:26.656Z,104.00
2023-05-01T03:42:26.651Z,108.00
2023-05-01T03:43:26.644Z,120.00
2023-05-01T03:44:26.627Z,128.00
2023-05-01T03:45:26.626Z,136.00
2023-05-01T03:46:26.644Z,140.00
2023-05-01T03:47:26.625Z,152.00
2023-05-01T03:48:26.592Z,164.00
2023-05-01T03:49:26.557Z,184.00
2023-05-01T03:50:26.561Z,204.00
2023-05-01T03:51:26.544Z,220.00
2023-05-01T03:52:26.567Z,240.00
2023-05-01T03:53:26.509Z,260.00
2023-05-01T03:54:26.505Z,280.00
2023-05-01T03:55:26.514Z,304.00
2023-05-01T03:56:26.487Z,328.00
2023-05-01T03:57:26.459Z,352.00
2023-05-01T03:58:26.457Z,384.00
2023-05-01T03:59:26.453Z,412.00
2023-05-01T04:00:26.448Z,436.00
2023-05-01T04:01:26.432Z,464.00
2023-05-01T04:02:26.465Z,484.00
2023-05-01T04:03:26.594Z,504.00
2023-05-01T04:04:26.437Z,520.00
2023-05-01T04:05:26.359Z,540.00
2023-05-01T04:06:26.388Z,568.00
2023-05-01T04:07:26.351Z,620.00
2023-05-01T04:08:26.332Z,676.00
2023-05-01T04:09:26.329Z,728.00
2023-05-01T04:10:26.300Z,760.00
2023-05-01T04:11:26.272Z,796.00
2023-05-01T04:12:26.289Z,832.00
2023-05-01T04:13:26.267Z,868.00
2023-05-01T04:14:26.280Z,896.00
2023-05-01T04:15:26.232Z,912.00
2023-05-01T04:16:26.243Z,928.00
2023-05-01T04:17:26.204Z,960.00
2023-05-01T04:18:26.214Z,1008.00
2023-05-01T04:19:26.191Z,1068.00
2023-05-01T04:20:26.188Z,1128.00
2023-05-01T04:21:26.154Z,1164.00
2023-05-01T04:22:26.151Z,1180.00
2023-05-01T04:23:26.147Z,1216.00
2023-05-01T04:24:26.134Z,1280.00
2023-05-01T04:25:26.099Z,1344.00
2023-05-01T04:26:26.091Z,1404.00
2023-05-01T04:27:26.077Z,1456.00
2023-05-01T04:28:26.084Z,1504.00
2023-05-01T04:29:26.096Z,1544.00
2023-05-01T04:30:26.039Z,1584.00
2023-05-01T04:31:26.096Z,1636.00
2023-05-01T04:32:26.055Z,1708.00
2023-05-01T04:33:26.004Z,1772.00
2023-05-01T04:34:26.016Z,1816.00
2023-05-01T04:35:26.015Z,1844.00
2023-05-01T04:36:25.960Z,1876.00
2023-05-01T04:37:25.962Z,1956.00
2023-05-01T04:38:25.947Z,2088.00
2023-05-01T04:39:25.952Z,2328.00
2023-05-01T04:40:25.926Z,3028.00
2023-05-01T04:41:25.904Z,5680.00
2023-05-01T04:42:25.898Z,7072.00
2023-05-01T04:43:25.859Z,4816.00
2023-05-01T04:44:25.880Z,3392.00
2023-05-01T04:45:25.839Z,3124.00
2023-05-01T04:46:25.877Z,3184.00
2023-05-01T04:47:25.836Z,3364.00
2023-05-01T04:48:25.847Z,3416.00
2023-05-01T04:49:25.807Z,3672.00
2023-05-01T04:50:25.786Z,4024.00
2023-05-01T04:51:25.760Z,4684.00
2023-05-01T04:52:25.771Z,6264.00
2023-05-01T04:53:25.741Z,8864.00
2023-05-01T04:54:25.743Z,11888.00
2023-05-01T04:55:25.708Z,11440.00
2023-05-01T04:56:25.731Z,12260.00
2023-05-01T04:57:25.704Z,13120.00
2023-05-01T04:58:25.667Z,13984.00
2023-05-01T04:59:25.692Z,7784.00
2023-05-01T05:00:25.727Z,4728.00
2023-05-01T05:01:25.667Z,4472.00
2023-05-01T05:02:25.718Z,4812.00
2023-05-01T05:03:25.669Z,7948.00
2023-05-01T05:04:25.618Z,10336.00
2023-05-01T05:05:25.605Z,7524.00
2023-05-01T05:06:25.637Z,6704.00
2023-05-01T05:07:25.565Z,7248.00
2023-05-01T05:08:25.546Z,9244.00
2023-05-01T05:09:25.556Z,11448.00
2023-05-01T05:10:25.530Z,7824.00
2023-05-01T05:11:25.500Z,5316.00
2023-05-01T05:12:25.499Z,4976.00
2023-05-01T05:13:25.479Z,4772.00
2023-05-01T05:14:25.510Z,4356.00
2023-05-01T05:15:25.471Z,4232.00
2023-05-01T05:16:25.545Z,4144.00
2023-05-01T05:17:25.437Z,4040.00
2023-05-01T05:18:25.466Z,3964.00
2023-05-01T05:19:25.421Z,4376.00
2023-05-01T05:20:25.405Z,4924.00
2023-05-01T05:21:25.389Z,5436.00
2023-05-01T05:22:25.384Z,5348.00
2023-05-01T05:23:25.367Z,5416.00
2023-05-01T05:24:25.364Z,5328.00
2023-05-01T05:25:25.431Z,5700.00
2023-05-01T05:26:25.309Z,5752.00
2023-05-01T05:27:25.344Z,5940.00
2023-05-01T05:28:25.285Z,6524.00
2023-05-01T05:29:25.297Z,6756.00
2023-05-01T05:30:25.272Z,6988.00
2023-05-01T05:31:25.277Z,7116.00
2023-05-01T05:32:25.401Z,7200.00
2023-05-01T05:33:25.286Z,7148.00
2023-05-01T05:34:25.236Z,7168.00
2023-05-01T05:35:25.191Z,7480.00
2023-05-01T05:36:25.195Z,7840.00
2023-05-01T05:37:25.162Z,8296.00
2023-05-01T05:38:25.174Z,8192.00
2023-05-01T05:39:25.190Z,8044.00
2023-05-01T05:40:25.148Z,8144.00
2023-05-01T05:41:25.134Z,7620.00
2023-05-01T05:42:25.137Z,6384.00
2023-05-01T05:43:27.848Z,5252.00
2023-05-01T05:44:25.091Z,5384.00
2023-05-01T05:45:25.067Z,6224.00
2023-05-01T05:46:25.110Z,6132.00
2023-05-01T05:47:25.050Z,6360.00
2023-05-01T05:48:25.083Z,6772.00
2023-05-01T05:49:25.159Z,6188.00
2023-05-01T05:50:25.015Z,6096.00
2023-05-01T05:51:24.979Z,6336.00
2023-05-01T05:52:24.998Z,6292.00
2023-05-01T05:53:26.150Z,5772.00
2023-05-01T05:54:24.963Z,5696.00
2023-05-01T05:55:24.930Z,5760.00
2023-05-01T05:56:24.936Z,6208.00
2023-05-01T05:57:24.918Z,6328.00
2023-05-01T05:58:24.915Z,6420.00
2023-05-01T05:59:24.904Z,7052.00
2023-05-01T06:00:24.873Z,7192.00
2023-05-01T06:01:25.026Z,6932.00
2023-05-01T06:02:24.884Z,6968.00
2023-05-01T06:03:25.149Z,7760.00
2023-05-01T06:04:24.835Z,8264.00
2023-05-01T06:05:24.832Z,8500.00
2023-05-01T06:06:24.826Z,9008.00
2023-05-01T06:07:24.804Z,8532.00
2023-05-01T06:08:24.831Z,8096.00
2023-05-01T06:09:24.780Z,8576.00
2023-05-01T06:10:24.748Z,8692.00
2023-05-01T06:11:24.732Z,9156.00
2023-05-01T06:12:24.718Z,9608.00
2023-05-01T06:13:24.710Z,9556.00
2023-05-01T06:14:24.706Z,8992.00
2023-05-01T06:15:24.838Z,9104.00
2023-05-01T06:16:24.719Z,8796.00
2023-05-01T06:17:24.649Z,9364.00
2023-05-01T06:18:24.633Z,9356.00
2023-05-01T06:19:24.657Z,9664.00
2023-05-01T06:20:24.609Z,10136.00
2023-05-01T06:21:24.615Z,11160.00
2023-05-01T06:22:24.594Z,12680.00
2023-05-01T06:23:24.606Z,17952.00
2023-05-01T06:24:24.580Z,22208.00
2023-05-01T06:25:24.551Z,21376.00
2023-05-01T06:26:24.555Z,19040.00
2023-05-01T06:27:24.529Z,26848.00
2023-05-01T06:28:24.500Z,36064.00
2023-05-01T06:29:24.510Z,35200.00
2023-05-01T06:30:24.498Z,34752.00
2023-05-01T06:31:24.500Z,33152.00
2023-05-01T06:32:24.482Z,30816.00
2023-05-01T06:33:24.440Z,42528.00
2023-05-01T06:34:24.448Z,46496.00
2023-05-01T06:35:24.428Z,32480.00
2023-05-01T06:36:24.398Z,27392.00
2023-05-01T06:37:24.379Z,26688.00
2023-05-01T06:38:26.303Z,33216.00
2023-05-01T06:39:24.399Z,51520.00
2023-05-01T06:40:24.553Z,52256.00
2023-05-01T06:41:24.326Z,38496.00
2023-05-01T06:42:24.323Z,24992.00
2023-05-01T06:43:24.306Z,26304.00
2023-05-01T06:44:24.305Z,37376.00
2023-05-01T06:45:24.316Z,55552.00
2023-05-01T06:46:24.328Z,54912.00
2023-05-01T06:47:24.378Z,37376.00
2023-05-01T06:48:24.239Z,22336.00
2023-05-01T06:49:24.267Z,24032.00
2023-05-01T06:50:24.232Z,35360.00
2023-05-01T06:51:24.215Z,48576.00
2023-05-01T06:52:24.187Z,45024.00
2023-05-01T06:53:24.202Z,31456.00
2023-05-01T06:54:24.213Z,17824.00
2023-05-01T06:55:24.160Z,25376.00
2023-05-01T06:56:24.137Z,41824.00
2023-05-01T06:57:24.129Z,44864.00
2023-05-01T06:58:24.700Z,34208.00
2023-05-01T06:59:24.109Z,18368.00
2023-05-01T07:00:24.091Z,16320.00
2023-05-01T07:01:24.129Z,24416.00
2023-05-01T07:02:24.112Z,37792.00
2023-05-01T07:03:24.078Z,40160.00
2023-05-01T07:04:24.102Z,29568.00
2023-05-01T07:05:24.029Z,17952.00
2023-05-01T07:06:24.051Z,22848.00
2023-05-01T07:07:24.006Z,47264.00
2023-05-01T07:08:23.989Z,52192.00
2023-05-01T07:09:23.986Z,44864.00
2023-05-01T07:10:23.960Z,26016.00
2023-05-01T07:11:26.485Z,20416.00
2023-05-01T07:12:23.929Z,39552.00
2023-05-01T07:13:23.941Z,48640.00
2023-05-01T07:14:23.938Z,43328.00
2023-05-01T07:15:23.888Z,26688.00
2023-05-01T07:16:23.917Z,17024.00
2023-05-01T07:17:23.897Z,13376.00
2023-05-01T07:18:23.876Z,11956.00
2023-05-01T07:19:23.857Z,9424.00
2023-05-01T07:20:23.822Z,8876.00
2023-05-01T07:21:23.837Z,8284.00
2023-05-01T07:22:23.809Z,7724.00
2023-05-01T07:23:23.782Z,7380.00
2023-05-01T07:24:23.826Z,7044.00
2023-05-01T07:25:23.765Z,6984.00
2023-05-01T07:26:23.766Z,6980.00
2023-05-01T07:27:23.750Z,7088.00
2023-05-01T07:28:23.711Z,6956.00
2023-05-01T07:29:23.752Z,7148.00
2023-05-01T07:30:23.690Z,7088.00
2023-05-01T07:31:23.725Z,7176.00
2023-05-01T07:32:23.666Z,7172.00
2023-05-01T07:33:23.749Z,7112.00
2023-05-01T07:34:23.661Z,7124.00
2023-05-01T07:35:23.637Z,7128.00
2023-05-01T07:36:23.650Z,7036.00
2023-05-01T07:37:23.614Z,6876.00
2023-05-01T07:38:23.595Z,6780.00
2023-05-01T07:39:23.583Z,6704.00
2023-05-01T07:40:23.563Z,6268.00
2023-05-01T07:41:23.578Z,6316.00
2023-05-01T07:42:23.542Z,6440.00
2023-05-01T07:43:23.536Z,6500.00
2023-05-01T07:44:23.523Z,6796.00
2023-05-01T07:45:23.495Z,7060.00
2023-05-01T07:46:23.548Z,7056.00
2023-05-01T07:47:23.516Z,6908.00
2023-05-01T07:48:23.474Z,6876.00
2023-05-01T07:49:23.475Z,6904.00
2023-05-01T07:50:23.448Z,6936.00
2023-05-01T07:51:23.415Z,6876.00
2023-05-01T07:52:23.417Z,6884.00
2023-05-01T07:53:23.419Z,6808.00
2023-05-01T07:54:23.388Z,6788.00
2023-05-01T07:55:23.372Z,6744.00
2023-05-01T07:56:23.360Z,6732.00
2023-05-01T07:57:23.360Z,6740.00
2023-05-01T07:58:23.330Z,6732.00
2023-05-01T07:59:23.386Z,6660.00
2023-05-01T08:00:23.304Z,6576.00
2023-05-01T08:01:23.298Z,6572.00
2023-05-01T08:02:23.322Z,6556.00
2023-05-01T08:03:23.511Z,6552.00
2023-05-01T08:04:23.490Z,6524.00
2023-05-01T08:05:23.255Z,6572.00
2023-05-01T08:06:23.287Z,6652.00
2023-05-01T08:07:23.213Z,6616.00
2023-05-01T08:08:23.214Z,6596.00
2023-05-01T08:09:23.234Z,6540.00
2023-05-01T08:10:23.219Z,6488.00
2023-05-01T08:11:23.193Z,6548.00
2023-05-01T08:12:23.149Z,6580.00
2023-05-01T08:13:23.174Z,6624.00
2023-05-01T08:14:23.140Z,6684.00
2023-05-01T08:15:23.116Z,6696.00
2023-05-01T08:16:23.128Z,6660.00
2023-05-01T08:17:23.114Z,6636.00
2023-05-01T08:18:23.091Z,6628.00
2023-05-01T08:19:23.082Z,6588.00
2023-05-01T08:20:23.092Z,6588.00
2023-05-01T08:21:23.064Z,6516.00
2023-05-01T08:22:23.042Z,6464.00
2023-05-01T08:23:23.029Z,6372.00
2023-05-01T08:24:23.283Z,6408.00
2023-05-01T08:25:23.004Z,6084.00
2023-05-01T08:26:23.023Z,6308.00
2023-05-01T08:27:23.000Z,6248.00
2023-05-01T08:28:22.961Z,6300.00
2023-05-01T08:29:22.981Z,6296.00
2023-05-01T08:30:22.981Z,6316.00
2023-05-01T08:31:22.925Z,6168.00
2023-05-01T08:32:22.959Z,5992.00
2023-05-01T08:33:22.892Z,5932.00
2023-05-01T08:34:22.885Z,6028.00
2023-05-01T08:35:22.880Z,6148.00
2023-05-01T08:36:22.838Z,6108.00
2023-05-01T08:37:22.855Z,6068.00
2023-05-01T08:38:22.822Z,5840.00
2023-05-01T08:39:22.827Z,5336.00
2023-05-01T08:40:22.831Z,5196.00
2023-05-01T08:41:22.799Z,5168.00
2023-05-01T08:42:22.771Z,5348.00
2023-05-01T08:43:22.758Z,5704.00
2023-05-01T08:44:22.779Z,5660.00
2023-05-01T08:45:22.756Z,5792.00
2023-05-01T08:46:22.731Z,5868.00
2023-05-01T08:47:22.728Z,5692.00
2023-05-01T08:48:22.719Z,5508.00
2023-05-01T08:49:22.699Z,5632.00
2023-05-01T08:50:22.978Z,5632.00
2023-05-01T08:51:22.655Z,5676.00
2023-05-01T08:52:22.673Z,5568.00
2023-05-01T08:53:22.632Z,5748.00
2023-05-01T08:54:22.656Z,5824.00
2023-05-01T08:55:22.616Z,5920.00
2023-05-01T08:56:22.581Z,5908.00
2023-05-01T08:57:22.587Z,5820.00
2023-05-01T08:58:22.576Z,5860.00
2023-05-01T08:59:22.566Z,5704.00
2023-05-01T09:00:22.620Z,5560.00
2023-05-01T09:01:22.547Z,5648.00
2023-05-01T09:02:22.566Z,5384.00
2023-05-01T09:03:22.582Z,5644.00
2023-05-01T09:04:22.548Z,5584.00
2023-05-01T09:05:22.496Z,5560.00
2023-05-01T09:06:22.494Z,5304.00
2023-05-01T09:07:22.482Z,5304.00
2023-05-01T09:08:22.444Z,5248.00
2023-05-01T09:09:22.433Z,5056.00
2023-05-01T09:10:22.402Z,5280.00
2023-05-01T09:11:22.415Z,5364.00
2023-05-01T09:12:22.383Z,5384.00
2023-05-01T09:13:22.383Z,5312.00
2023-05-01T09:14:22.367Z,5348.00
2023-05-01T09:15:22.386Z,5344.00
2023-05-01T09:16:22.353Z,5392.00
2023-05-01T09:17:22.424Z,5456.00
2023-05-01T09:18:22.359Z,5400.00
2023-05-01T09:19:22.302Z,5456.00
2023-05-01T09:20:22.301Z,5388.00
2023-05-01T09:21:22.308Z,5376.00
2023-05-01T09:22:22.237Z,5388.00
2023-05-01T09:23:22.239Z,5308.00
2023-05-01T09:24:22.268Z,5328.00
2023-05-01T09:25:22.233Z,5388.00
2023-05-01T09:26:22.200Z,5396.00
2023-05-01T09:27:22.197Z,5392.00
2023-05-01T09:28:22.174Z,5412.00
2023-05-01T09:29:22.173Z,5504.00
2023-05-01T09:30:22.141Z,5476.00
2023-05-01T09:31:22.165Z,5476.00
2023-05-01T09:32:22.231Z,5508.00
2023-05-01T09:33:22.153Z,5464.00
2023-05-01T09:34:22.102Z,5408.00
2023-05-01T09:35:22.081Z,5400.00
2023-05-01T09:36:22.076Z,5360.00
2023-05-01T09:37:22.091Z,5496.00
2023-05-01T09:38:22.096Z,5572.00
2023-05-01T09:39:22.050Z,5484.00
2023-05-01T09:40:22.036Z,5532.00
2023-05-01T09:41:22.025Z,5600.00
2023-05-01T09:42:21.994Z,5608.00
2023-05-01T09:43:22.002Z,5692.00
2023-05-01T09:44:21.972Z,5720.00
2023-05-01T09:45:21.960Z,5748.00
2023-05-01T09:46:21.969Z,5696.00
2023-05-01T09:47:21.975Z,5600.00
2023-05-01T09:48:21.906Z,5488.00
2023-05-01T09:49:21.909Z,5476.00
2023-05-01T09:50:21.889Z,5560.00
2023-05-01T09:51:21.906Z,5504.00
2023-05-01T09:52:21.859Z,5156.00
2023-05-01T09:53:21.862Z,4908.00
2023-05-01T09:54:21.843Z,4660.00
2023-05-01T09:55:23.086Z,4240.00
2023-05-01T09:56:21.830Z,4164.00
2023-05-01T09:57:21.799Z,4276.00
2023-05-01T09:58:21.785Z,4336.00
2023-05-01T09:59:21.802Z,4104.00
2023-05-01T10:00:21.775Z,4096.00
2023-05-01T10:01:21.794Z,4576.00
2023-05-01T10:02:21.816Z,4680.00
2023-05-01T10:03:21.803Z,5040.00
2023-05-01T10:04:21.749Z,5052.00
2023-05-01T10:05:21.721Z,4788.00
2023-05-01T10:06:21.767Z,4712.00
2023-05-01T10:07:21.675Z,4452.00
2023-05-01T10:08:21.651Z,4468.00
2023-05-01T10:09:21.675Z,5032.00
2023-05-01T10:10:21.653Z,5020.00
2023-05-01T10:11:21.632Z,5172.00
2023-05-01T10:12:21.616Z,5004.00
2023-05-01T10:13:21.593Z,5232.00
2023-05-01T10:14:21.597Z,5172.00
2023-05-01T10:15:25.972Z,5168.00
2023-05-01T10:16:22.618Z,4892.00
2023-05-01T10:17:21.621Z,5256.00
2023-05-01T10:18:21.703Z,5344.00
2023-05-01T10:19:21.542Z,5308.00
2023-05-01T10:20:21.522Z,5132.00
2023-05-01T10:21:21.485Z,5348.00
2023-05-01T10:22:21.499Z,5376.00
2023-05-01T10:23:21.455Z,5416.00
2023-05-01T10:24:21.504Z,5156.00
2023-05-01T10:25:21.433Z,5380.00
2023-05-01T10:26:21.429Z,5332.00
2023-05-01T10:27:21.418Z,5396.00
2023-05-01T10:28:21.397Z,5392.00
2023-05-01T10:29:21.388Z,5292.00
2023-05-01T10:30:21.393Z,5152.00
2023-05-01T10:31:21.405Z,4232.00
2023-05-01T10:32:21.352Z,3796.00
2023-05-01T10:33:21.439Z,3516.00
2023-05-01T10:34:21.348Z,4176.00
2023-05-01T10:35:21.301Z,4324.00
2023-05-01T10:36:21.292Z,4632.00
2023-05-01T10:37:21.322Z,4516.00
2023-05-01T10:38:21.279Z,4644.00
2023-05-01T10:39:21.301Z,3948.00
2023-05-01T10:40:21.249Z,3840.00
2023-05-01T10:41:21.220Z,4256.00
2023-05-01T10:42:21.207Z,4356.00
2023-05-01T10:43:21.224Z,4128.00
2023-05-01T10:44:21.209Z,4376.00
2023-05-01T10:45:21.174Z,4116.00
2023-05-01T10:46:21.319Z,4012.00
2023-05-01T10:47:21.174Z,3948.00
2023-05-01T10:48:21.140Z,3924.00
2023-05-01T10:49:21.157Z,4220.00
2023-05-01T10:50:21.105Z,4464.00
2023-05-01T10:51:21.108Z,4468.00
2023-05-01T10:52:21.101Z,4496.00
2023-05-01T10:53:21.070Z,4400.00
2023-05-01T10:54:21.082Z,4468.00
2023-05-01T10:55:21.038Z,4496.00
2023-05-01T10:56:21.019Z,4368.00
2023-05-01T10:57:21.030Z,4396.00
2023-05-01T10:58:21.006Z,4372.00
2023-05-01T10:59:21.016Z,4316.00
2023-05-01T11:00:20.981Z,4052.00
2023-05-01T11:01:21.027Z,3972.00
2023-05-01T11:02:20.988Z,4052.00
2023-05-01T11:03:20.974Z,4100.00
2023-05-01T11:04:20.941Z,4068.00
2023-05-01T11:05:32.187Z,4048.00
2023-05-01T11:06:22.002Z,4128.00
2023-05-01T11:07:20.974Z,4256.00
2023-05-01T11:08:20.901Z,4312.00
2023-05-01T11:09:21.146Z,4268.00
2023-05-01T11:10:20.854Z,4304.00
2023-05-01T11:11:20.832Z,4316.00
2023-05-01T11:12:20.826Z,4356.00
2023-05-01T11:13:20.809Z,4328.00
2023-05-01T11:14:20.838Z,4316.00
2023-05-01T11:15:20.781Z,4272.00
2023-05-01T11:16:20.905Z,4244.00
2023-05-01T11:17:20.758Z,4180.00
2023-05-01T11:18:20.759Z,4240.00
2023-05-01T11:19:20.748Z,4200.00
2023-05-01T11:20:20.719Z,4336.00
2023-05-01T11:21:20.722Z,4324.00
2023-05-01T11:22:20.733Z,4264.00
2023-05-01T11:23:20.715Z,4280.00
2023-05-01T11:24:20.712Z,4284.00
2023-05-01T11:25:20.688Z,4212.00
2023-05-01T11:26:20.652Z,4088.00
2023-05-01T11:27:20.619Z,4000.00
2023-05-01T11:28:20.644Z,4096.00
2023-05-01T11:29:20.614Z,3984.00
2023-05-01T11:30:20.599Z,3824.00
2023-05-01T11:31:20.630Z,3792.00
2023-05-01T11:32:20.770Z,3748.00
2023-05-01T11:33:20.595Z,3784.00
2023-05-01T11:34:20.573Z,3684.00
2023-05-01T11:35:20.542Z,3812.00
2023-05-01T11:36:20.509Z,3920.00
2023-05-01T11:37:20.504Z,3844.00
2023-05-01T11:38:20.496Z,3836.00
2023-05-01T11:39:20.546Z,3672.00
2023-05-01T11:40:20.473Z,3620.00
2023-05-01T11:41:20.750Z,3672.00
2023-05-01T11:42:20.528Z,3652.00
2023-05-01T11:43:20.443Z,3844.00
2023-05-01T11:44:20.456Z,4256.00
2023-05-01T11:45:20.436Z,4012.00
2023-05-01T11:46:20.438Z,4120.00
2023-05-01T11:47:20.402Z,4296.00
2023-05-01T11:48:20.522Z,4404.00
2023-05-01T11:49:20.348Z,4620.00
2023-05-01T11:50:20.350Z,4484.00
2023-05-01T11:51:20.327Z,4220.00
2023-05-01T11:52:20.305Z,4216.00
2023-05-01T11:53:20.299Z,4100.00
2023-05-01T11:54:20.310Z,3968.00
2023-05-01T11:55:20.321Z,4328.00
2023-05-01T11:56:26.512Z,4532.00
2023-05-01T11:57:21.253Z,4740.00
2023-05-01T11:58:20.252Z,4796.00
2023-05-01T11:59:20.248Z,4804.00
2023-05-01T12:00:20.220Z,4556.00
2023-05-01T12:01:20.205Z,4732.00
2023-05-01T12:02:20.294Z,4572.00
2023-05-01T12:03:20.332Z,4452.00
2023-05-01T12:04:20.264Z,4432.00
2023-05-01T12:05:20.149Z,4228.00
2023-05-01T12:06:20.166Z,4016.00
2023-05-01T12:07:20.133Z,3856.00
2023-05-01T12:08:20.102Z,3888.00
2023-05-01T12:09:20.122Z,3752.00
2023-05-01T12:10:20.093Z,3616.00
2023-05-01T12:11:20.069Z,3904.00
2023-05-01T12:12:20.059Z,3868.00
2023-05-01T12:13:20.038Z,3908.00
2023-05-01T12:14:20.038Z,3936.00
2023-05-01T12:15:20.011Z,3824.00
2023-05-01T12:16:20.050Z,4032.00
2023-05-01T12:17:20.097Z,4272.00
2023-05-01T12:18:20.005Z,4588.00
2023-05-01T12:19:21.720Z,4524.00
2023-05-01T12:20:19.947Z,4728.00
2023-05-01T12:21:19.954Z,4536.00
2023-05-01T12:22:19.925Z,4612.00
2023-05-01T12:23:19.921Z,4624.00
2023-05-01T12:24:19.907Z,4556.00